sensor_id;sensor_type;location;lat;lon;timestamp;temperature;humidity
14099;DHT22;7126;48.458;7.930;2022-11-20T00:01:43;9.00;99.90
14099;DHT22;7126;48.458;7.930;2022-11-20T00:04:10;9.00;99.90
14099;DHT22;7126;48.458;7.930;2022-11-20T00:06:37;9.10;99.90
14099;DHT22;7126;48.458;7.930;2022-11-20T00:09:03;9.10;99.90
14099;DHT22;7126;48.458;7.930;2022-11-20T00:11:31;9.00;99.90
14099;DHT22;7126;48.458;7.930;2022-11-20T00:13:58;9.00;99.90
14099;DHT22;7126;48.458;7.930;2022-11-20T00:16:26;9.00;99.90
14099;DHT22;7126;48.458;7.930;2022-11-20T00:18:52;9.00;99.90
14099;DHT22;7126;48.458;7.930;2022-11-20T00:21:23;9.00;99.90
14099;DHT22;7126;48.458;7.930;2022-11-20T00:23:49;9.00;99.90
14099;DHT22;7126;48.458;7.930;2022-11-20T00:26:18;8.90;99.90
14099;DHT22;7126;48.458;7.930;2022-11-20T00:28:48;8.90;99.90
14099;DHT22;7126;48.458;7.930;2022-11-20T00:31:15;8.90;99.90
14099;DHT22;7126;48.458;7.930;2022-11-20T00:33:42;8.90;99.90
14099;DHT22;7126;48.458;7.930;2022-11-20T00:36:10;8.80;99.90
14099;DHT22;7126;48.458;7.930;2022-11-20T00:38:36;8.80;99.90
14099;DHT22;7126;48.458;7.930;2022-11-20T00:41:05;8.80;99.90
14099;DHT22;7126;48.458;7.930;2022-11-20T00:43:31;8.90;99.90
14099;DHT22;7126;48.458;7.930;2022-11-20T00:46:05;8.80;99.90
14099;DHT22;7126;48.458;7.930;2022-11-20T00:48:31;8.90;99.90
14099;DHT22;7126;48.458;7.930;2022-11-20T00:50:57;8.90;99.90
14099;DHT22;7126;48.458;7.930;2022-11-20T00:53:23;8.80;99.90
14099;DHT22;7126;48.458;7.930;2022-11-20T00:55:59;8.80;99.90
14099;DHT22;7126;48.458;7.930;2022-11-20T00:58:29;8.70;99.90
14099;DHT22;7126;48.458;7.930;2022-11-20T01:01:00;8.80;99.90
14099;DHT22;7126;48.458;7.930;2022-11-20T01:03:26;8.70;99.90
14099;DHT22;7126;48.458;7.930;2022-11-20T01:05:52;8.70;99.90
14099;DHT22;7126;48.458;7.930;2022-11-20T01:08:17;8.80;99.90
14099;DHT22;7126;48.458;7.930;2022-11-20T01:10:43;8.80;99.90
14099;DHT22;7126;48.458;7.930;2022-11-20T01:13:08;8.80;99.90
14099;DHT22;7126;48.458;7.930;2022-11-20T01:15:52;8.80;99.90
14099;DHT22;7126;48.458;7.930;2022-11-20T01:18:18;8.80;99.90
14099;DHT22;7126;48.458;7.930;2022-11-20T01:20:43;8.80;99.90
14099;DHT22;7126;48.458;7.930;2022-11-20T01:23:09;8.90;99.90
14099;DHT22;7126;48.458;7.930;2022-11-20T01:25:34;8.80;99.90
14099;DHT22;7126;48.458;7.930;2022-11-20T01:28:00;8.80;99.90
14099;DHT22;7126;48.458;7.930;2022-11-20T01:30:26;8.70;99.90
14099;DHT22;7126;48.458;7.930;2022-11-20T01:32:51;8.70;99.90
14099;DHT22;7126;48.458;7.930;2022-11-20T01:35:17;8.80;99.90
14099;DHT22;7126;48.458;7.930;2022-11-20T01:37:42;8.80;99.90
14099;DHT22;7126;48.458;7.930;2022-11-20T01:40:08;8.80;99.90
14099;DHT22;7126;48.458;7.930;2022-11-20T01:42:34;8.80;99.90
14099;DHT22;7126;48.458;7.930;2022-11-20T01:48:13;8.80;99.90
14099;DHT22;7126;48.458;7.930;2022-11-20T01:50:40;8.80;99.90
14099;DHT22;7126;48.458;7.930;2022-11-20T01:53:10;8.70;99.90
14099;DHT22;7126;48.458;7.930;2022-11-20T01:55:58;8.80;99.90
14099;DHT22;7126;48.458;7.930;2022-11-20T01:58:30;8.90;99.90
14099;DHT22;7126;48.458;7.930;2022-11-20T02:00:56;8.80;99.90
14099;DHT22;7126;48.458;7.930;2022-11-20T02:03:22;8.80;99.90
14099;DHT22;7126;48.458;7.930;2022-11-20T02:06:14;8.80;99.90
14099;DHT22;7126;48.458;7.930;2022-11-20T02:08:42;8.70;99.90
14099;DHT22;7126;48.458;7.930;2022-11-20T02:11:07;8.70;99.90
14099;DHT22;7126;48.458;7.930;2022-11-20T02:13:33;8.80;99.90
14099;DHT22;7126;48.458;7.930;2022-11-20T02:18:42;8.70;99.90
14099;DHT22;7126;48.458;7.930;2022-11-20T02:21:43;8.70;99.90
14099;DHT22;7126;48.458;7.930;2022-11-20T02:24:14;8.70;99.90
14099;DHT22;7126;48.458;7.930;2022-11-20T02:26:51;8.60;99.90
14099;DHT22;7126;48.458;7.930;2022-11-20T02:29:28;8.60;99.90
14099;DHT22;7126;48.458;7.930;2022-11-20T02:31:55;8.60;99.90
14099;DHT22;7126;48.458;7.930;2022-11-20T02:34:22;8.50;99.90
14099;DHT22;7126;48.458;7.930;2022-11-20T02:36:48;8.50;99.90
14099;DHT22;7126;48.458;7.930;2022-11-20T02:39:15;8.50;99.90
14099;DHT22;7126;48.458;7.930;2022-11-20T02:41:42;8.40;99.90
14099;DHT22;7126;48.458;7.930;2022-11-20T02:44:08;8.40;99.90
14099;DHT22;7126;48.458;7.930;2022-11-20T02:46:34;8.30;99.90
14099;DHT22;7126;48.458;7.930;2022-11-20T02:49:02;8.30;99.90
14099;DHT22;7126;48.458;7.930;2022-11-20T02:51:28;8.20;99.90
14099;DHT22;7126;48.458;7.930;2022-11-20T02:53:53;8.30;99.90
14099;DHT22;7126;48.458;7.930;2022-11-20T02:56:19;8.30;99.90
14099;DHT22;7126;48.458;7.930;2022-11-20T02:58:45;8.40;99.90
14099;DHT22;7126;48.458;7.930;2022-11-20T03:01:10;8.40;99.90
14099;DHT22;7126;48.458;7.930;2022-11-20T03:03:36;8.40;99.90
14099;DHT22;7126;48.458;7.930;2022-11-20T03:06:02;8.40;99.90
14099;DHT22;7126;48.458;7.930;2022-11-20T03:08:27;8.30;99.90
14099;DHT22;7126;48.458;7.930;2022-11-20T03:10:53;8.40;99.90
14099;DHT22;7126;48.458;7.930;2022-11-20T03:13:19;8.40;99.90
14099;DHT22;7126;48.458;7.930;2022-11-20T03:15:44;8.50;99.90
14099;DHT22;7126;48.458;7.930;2022-11-20T03:18:10;8.50;99.90
14099;DHT22;7126;48.458;7.930;2022-11-20T03:20:35;8.50;99.90
14099;DHT22;7126;48.458;7.930;2022-11-20T03:23:01;8.60;99.90
14099;DHT22;7126;48.458;7.930;2022-11-20T03:25:27;8.60;99.90
14099;DHT22;7126;48.458;7.930;2022-11-20T03:27:54;8.50;99.90
14099;DHT22;7126;48.458;7.930;2022-11-20T03:30:19;8.50;99.90
14099;DHT22;7126;48.458;7.930;2022-11-20T03:32:45;8.50;99.90
14099;DHT22;7126;48.458;7.930;2022-11-20T03:35:11;8.50;99.90
14099;DHT22;7126;48.458;7.930;2022-11-20T03:37:36;8.50;99.90
14099;DHT22;7126;48.458;7.930;2022-11-20T03:40:02;8.50;99.90
14099;DHT22;7126;48.458;7.930;2022-11-20T03:42:28;8.50;99.90
14099;DHT22;7126;48.458;7.930;2022-11-20T03:45:16;8.40;99.90
14099;DHT22;7126;48.458;7.930;2022-11-20T03:47:43;8.50;99.90
14099;DHT22;7126;48.458;7.930;2022-11-20T03:50:11;8.50;99.90
14099;DHT22;7126;48.458;7.930;2022-11-20T03:52:39;8.50;99.90
14099;DHT22;7126;48.458;7.930;2022-11-20T03:55:06;8.50;99.90
14099;DHT22;7126;48.458;7.930;2022-11-20T03:57:32;8.60;99.90
14099;DHT22;7126;48.458;7.930;2022-11-20T03:59:58;8.60;99.90
14099;DHT22;7126;48.458;7.930;2022-11-20T04:02:23;8.60;99.90
14099;DHT22;7126;48.458;7.930;2022-11-20T04:04:49;8.60;99.90
14099;DHT22;7126;48.458;7.930;2022-11-20T04:07:14;8.70;99.90
14099;DHT22;7126;48.458;7.930;2022-11-20T04:09:40;8.70;99.90
14099;DHT22;7126;48.458;7.930;2022-11-20T04:12:06;8.70;99.90
14099;DHT22;7126;48.458;7.930;2022-11-20T04:14:31;8.70;99.90
14099;DHT22;7126;48.458;7.930;2022-11-20T04:16:57;8.60;99.90
14099;DHT22;7126;48.458;7.930;2022-11-20T04:19:22;8.60;99.90
14099;DHT22;7126;48.458;7.930;2022-11-20T04:21:48;8.50;99.90
14099;DHT22;7126;48.458;7.930;2022-11-20T04:24:14;8.50;99.90
14099;DHT22;7126;48.458;7.930;2022-11-20T04:26:40;8.50;99.90
14099;DHT22;7126;48.458;7.930;2022-11-20T04:29:06;8.40;99.90
14099;DHT22;7126;48.458;7.930;2022-11-20T04:31:33;8.50;99.90
14099;DHT22;7126;48.458;7.930;2022-11-20T04:34:04;8.50;99.90
14099;DHT22;7126;48.458;7.930;2022-11-20T04:36:30;8.50;99.90
14099;DHT22;7126;48.458;7.930;2022-11-20T04:38:58;8.50;99.90
14099;DHT22;7126;48.458;7.930;2022-11-20T04:41:26;8.50;99.90
14099;DHT22;7126;48.458;7.930;2022-11-20T04:43:54;8.50;99.90
14099;DHT22;7126;48.458;7.930;2022-11-20T04:46:25;8.50;99.90
14099;DHT22;7126;48.458;7.930;2022-11-20T04:48:50;8.40;99.90
14099;DHT22;7126;48.458;7.930;2022-11-20T04:51:16;8.50;99.90
14099;DHT22;7126;48.458;7.930;2022-11-20T04:53:42;8.40;99.90
14099;DHT22;7126;48.458;7.930;2022-11-20T04:56:09;8.40;99.90
14099;DHT22;7126;48.458;7.930;2022-11-20T04:58:35;8.50;99.90
14099;DHT22;7126;48.458;7.930;2022-11-20T05:01:12;8.40;99.90
14099;DHT22;7126;48.458;7.930;2022-11-20T05:03:39;8.30;99.90
14099;DHT22;7126;48.458;7.930;2022-11-20T05:06:06;8.30;99.90
14099;DHT22;7126;48.458;7.930;2022-11-20T05:08:33;8.40;99.90
14099;DHT22;7126;48.458;7.930;2022-11-20T05:13:31;8.50;99.90
14099;DHT22;7126;48.458;7.930;2022-11-20T05:16:05;8.40;99.90
14099;DHT22;7126;48.458;7.930;2022-11-20T05:18:31;8.40;99.90
14099;DHT22;7126;48.458;7.930;2022-11-20T05:20:57;8.40;99.90
14099;DHT22;7126;48.458;7.930;2022-11-20T05:23:24;8.30;99.90
14099;DHT22;7126;48.458;7.930;2022-11-20T05:25:56;8.30;99.90
14099;DHT22;7126;48.458;7.930;2022-11-20T05:28:23;8.40;99.90
14099;DHT22;7126;48.458;7.930;2022-11-20T05:30:49;8.30;99.90
14099;DHT22;7126;48.458;7.930;2022-11-20T05:33:15;8.40;99.90
14099;DHT22;7126;48.458;7.930;2022-11-20T05:35:41;8.50;99.90
14099;DHT22;7126;48.458;7.930;2022-11-20T05:38:06;8.50;99.90
14099;DHT22;7126;48.458;7.930;2022-11-20T05:40:32;8.50;99.90
14099;DHT22;7126;48.458;7.930;2022-11-20T05:42:58;8.60;99.90
14099;DHT22;7126;48.458;7.930;2022-11-20T05:45:24;8.50;99.90
14099;DHT22;7126;48.458;7.930;2022-11-20T05:47:50;8.50;99.90
14099;DHT22;7126;48.458;7.930;2022-11-20T05:50:15;8.50;99.90
14099;DHT22;7126;48.458;7.930;2022-11-20T05:52:41;8.50;99.90
14099;DHT22;7126;48.458;7.930;2022-11-20T05:55:07;8.50;99.90
14099;DHT22;7126;48.458;7.930;2022-11-20T05:57:33;8.40;99.90
14099;DHT22;7126;48.458;7.930;2022-11-20T05:59:58;8.40;99.90
14099;DHT22;7126;48.458;7.930;2022-11-20T06:02:24;8.50;99.90
14099;DHT22;7126;48.458;7.930;2022-11-20T06:04:50;8.40;99.90
14099;DHT22;7126;48.458;7.930;2022-11-20T06:07:15;8.40;99.90
14099;DHT22;7126;48.458;7.930;2022-11-20T06:09:41;8.40;99.90
14099;DHT22;7126;48.458;7.930;2022-11-20T06:12:07;8.50;99.90
14099;DHT22;7126;48.458;7.930;2022-11-20T06:14:32;8.50;99.90
14099;DHT22;7126;48.458;7.930;2022-11-20T06:16:58;8.50;99.90
14099;DHT22;7126;48.458;7.930;2022-11-20T06:19:24;8.50;99.90
14099;DHT22;7126;48.458;7.930;2022-11-20T06:21:49;8.50;99.90
14099;DHT22;7126;48.458;7.930;2022-11-20T06:24:15;8.60;99.90
14099;DHT22;7126;48.458;7.930;2022-11-20T06:26:41;8.60;99.90
14099;DHT22;7126;48.458;7.930;2022-11-20T06:29:07;8.60;99.90
14099;DHT22;7126;48.458;7.930;2022-11-20T06:31:32;8.70;99.90
14099;DHT22;7126;48.458;7.930;2022-11-20T06:34:00;8.60;99.90
14099;DHT22;7126;48.458;7.930;2022-11-20T06:36:26;8.50;99.90
14099;DHT22;7126;48.458;7.930;2022-11-20T06:38:52;8.50;99.90
14099;DHT22;7126;48.458;7.930;2022-11-20T06:41:20;8.60;99.90
14099;DHT22;7126;48.458;7.930;2022-11-20T06:43:46;8.50;99.90
14099;DHT22;7126;48.458;7.930;2022-11-20T06:46:13;8.40;99.90
14099;DHT22;7126;48.458;7.930;2022-11-20T06:48:39;8.50;99.90
14099;DHT22;7126;48.458;7.930;2022-11-20T06:51:06;8.50;99.90
14099;DHT22;7126;48.458;7.930;2022-11-20T06:53:32;8.50;99.90
14099;DHT22;7126;48.458;7.930;2022-11-20T06:55:57;8.50;99.90
14099;DHT22;7126;48.458;7.930;2022-11-20T06:58:25;8.60;99.90
14099;DHT22;7126;48.458;7.930;2022-11-20T07:00:51;8.60;99.90
14099;DHT22;7126;48.458;7.930;2022-11-20T07:03:16;8.60;99.90
14099;DHT22;7126;48.458;7.930;2022-11-20T07:05:42;8.60;99.90
14099;DHT22;7126;48.458;7.930;2022-11-20T07:08:09;8.60;99.90
14099;DHT22;7126;48.458;7.930;2022-11-20T07:10:35;8.50;99.90
14099;DHT22;7126;48.458;7.930;2022-11-20T07:13:00;8.60;99.90
14099;DHT22;7126;48.458;7.930;2022-11-20T07:15:26;8.60;99.90
14099;DHT22;7126;48.458;7.930;2022-11-20T07:17:52;8.50;99.90
14099;DHT22;7126;48.458;7.930;2022-11-20T07:20:18;8.60;99.90
14099;DHT22;7126;48.458;7.930;2022-11-20T07:22:43;8.50;99.90
14099;DHT22;7126;48.458;7.930;2022-11-20T07:25:10;8.40;99.90
14099;DHT22;7126;48.458;7.930;2022-11-20T07:27:36;8.50;99.90
14099;DHT22;7126;48.458;7.930;2022-11-20T07:30:03;8.50;99.90
14099;DHT22;7126;48.458;7.930;2022-11-20T07:32:29;8.40;99.90
14099;DHT22;7126;48.458;7.930;2022-11-20T07:34:55;8.50;99.90
14099;DHT22;7126;48.458;7.930;2022-11-20T07:37:20;8.40;99.90
14099;DHT22;7126;48.458;7.930;2022-11-20T07:39:46;8.40;99.90
14099;DHT22;7126;48.458;7.930;2022-11-20T07:42:11;8.50;99.90
14099;DHT22;7126;48.458;7.930;2022-11-20T07:44:37;8.50;99.90
14099;DHT22;7126;48.458;7.930;2022-11-20T07:47:03;8.50;99.90
14099;DHT22;7126;48.458;7.930;2022-11-20T07:49:32;8.50;99.90
14099;DHT22;7126;48.458;7.930;2022-11-20T07:51:58;8.60;99.90
14099;DHT22;7126;48.458;7.930;2022-11-20T07:54:24;8.60;99.90
14099;DHT22;7126;48.458;7.930;2022-11-20T07:56:50;8.50;99.90
14099;DHT22;7126;48.458;7.930;2022-11-20T07:59:15;8.50;99.90
14099;DHT22;7126;48.458;7.930;2022-11-20T08:01:42;8.60;99.90
14099;DHT22;7126;48.458;7.930;2022-11-20T08:04:08;8.70;99.90
14099;DHT22;7126;48.458;7.930;2022-11-20T08:06:34;8.60;99.90
14099;DHT22;7126;48.458;7.930;2022-11-20T08:09:00;8.60;99.90
14099;DHT22;7126;48.458;7.930;2022-11-20T08:11:25;8.60;99.90
14099;DHT22;7126;48.458;7.930;2022-11-20T08:14:09;8.60;99.90
14099;DHT22;7126;48.458;7.930;2022-11-20T08:16:45;8.50;99.90
14099;DHT22;7126;48.458;7.930;2022-11-20T08:19:11;8.50;99.90
14099;DHT22;7126;48.458;7.930;2022-11-20T08:21:37;8.50;99.90
14099;DHT22;7126;48.458;7.930;2022-11-20T08:24:03;8.40;99.90
14099;DHT22;7126;48.458;7.930;2022-11-20T08:26:29;8.50;99.90
14099;DHT22;7126;48.458;7.930;2022-11-20T08:28:58;8.50;99.90
14099;DHT22;7126;48.458;7.930;2022-11-20T08:31:25;8.50;99.90
14099;DHT22;7126;48.458;7.930;2022-11-20T08:33:51;8.50;99.90
14099;DHT22;7126;48.458;7.930;2022-11-20T08:36:17;8.60;99.90
14099;DHT22;7126;48.458;7.930;2022-11-20T08:38:51;8.50;99.90
14099;DHT22;7126;48.458;7.930;2022-11-20T08:41:17;8.60;99.90
14099;DHT22;7126;48.458;7.930;2022-11-20T08:44:04;8.60;99.90
14099;DHT22;7126;48.458;7.930;2022-11-20T08:46:41;8.50;99.90
14099;DHT22;7126;48.458;7.930;2022-11-20T08:49:08;8.40;99.90
14099;DHT22;7126;48.458;7.930;2022-11-20T08:51:35;8.50;99.90
14099;DHT22;7126;48.458;7.930;2022-11-20T08:54:01;8.60;99.90
14099;DHT22;7126;48.458;7.930;2022-11-20T08:56:27;8.70;99.90
14099;DHT22;7126;48.458;7.930;2022-11-20T08:58:52;8.70;99.90
14099;DHT22;7126;48.458;7.930;2022-11-20T09:01:19;8.70;99.90
14099;DHT22;7126;48.458;7.930;2022-11-20T09:03:45;8.70;99.90
14099;DHT22;7126;48.458;7.930;2022-11-20T09:06:11;8.70;99.90
14099;DHT22;7126;48.458;7.930;2022-11-20T09:08:37;8.70;99.90
14099;DHT22;7126;48.458;7.930;2022-11-20T09:11:03;8.70;99.90
14099;DHT22;7126;48.458;7.930;2022-11-20T09:13:30;8.70;99.90
14099;DHT22;7126;48.458;7.930;2022-11-20T09:16:01;8.70;99.90
14099;DHT22;7126;48.458;7.930;2022-11-20T09:18:28;8.70;99.90
14099;DHT22;7126;48.458;7.930;2022-11-20T09:21:01;8.70;99.90
14099;DHT22;7126;48.458;7.930;2022-11-20T09:23:27;8.80;99.90
14099;DHT22;7126;48.458;7.930;2022-11-20T09:25:56;8.80;99.90
14099;DHT22;7126;48.458;7.930;2022-11-20T09:28:25;8.80;99.90
14099;DHT22;7126;48.458;7.930;2022-11-20T09:30:51;8.90;99.90
14099;DHT22;7126;48.458;7.930;2022-11-20T09:33:17;8.90;99.90
14099;DHT22;7126;48.458;7.930;2022-11-20T09:35:43;8.90;99.90
14099;DHT22;7126;48.458;7.930;2022-11-20T09:38:09;9.00;99.90
14099;DHT22;7126;48.458;7.930;2022-11-20T09:40:39;9.00;99.90
14099;DHT22;7126;48.458;7.930;2022-11-20T09:51:59;9.10;99.90
14099;DHT22;7126;48.458;7.930;2022-11-20T09:54:35;9.20;99.90
14099;DHT22;7126;48.458;7.930;2022-11-20T09:57:10;9.20;99.90
14099;DHT22;7126;48.458;7.930;2022-11-20T10:02:15;9.30;99.90
14099;DHT22;7126;48.458;7.930;2022-11-20T10:04:47;9.40;99.90
14099;DHT22;7126;48.458;7.930;2022-11-20T10:07:19;9.40;99.90
14099;DHT22;7126;48.458;7.930;2022-11-20T10:09:52;9.50;99.90
14099;DHT22;7126;48.458;7.930;2022-11-20T10:12:47;9.60;99.90
14099;DHT22;7126;48.458;7.930;2022-11-20T10:17:58;9.70;99.90
14099;DHT22;7126;48.458;7.930;2022-11-20T10:20:49;9.80;99.90
14099;DHT22;7126;48.458;7.930;2022-11-20T10:26:02;9.80;99.90
14099;DHT22;7126;48.458;7.930;2022-11-20T10:31:00;9.60;99.90
14099;DHT22;7126;48.458;7.930;2022-11-20T10:33:34;9.60;99.90
14099;DHT22;7126;48.458;7.930;2022-11-20T10:36:28;9.70;99.90
14099;DHT22;7126;48.458;7.930;2022-11-20T10:39:06;9.60;99.90
14099;DHT22;7126;48.458;7.930;2022-11-20T10:41:40;9.60;99.90
14099;DHT22;7126;48.458;7.930;2022-11-20T10:44:14;9.50;99.90
14099;DHT22;7126;48.458;7.930;2022-11-20T10:47:01;9.50;99.90
14099;DHT22;7126;48.458;7.930;2022-11-20T10:49:27;9.50;99.90
14099;DHT22;7126;48.458;7.930;2022-11-20T10:54:44;9.70;99.90
14099;DHT22;7126;48.458;7.930;2022-11-20T11:00:16;10.00;99.90
14099;DHT22;7126;48.458;7.930;2022-11-20T11:02:49;10.30;99.90
14099;DHT22;7126;48.458;7.930;2022-11-20T11:07:50;10.80;99.90
14099;DHT22;7126;48.458;7.930;2022-11-20T11:10:39;10.90;99.90
14099;DHT22;7126;48.458;7.930;2022-11-20T11:13:07;11.00;99.90
14099;DHT22;7126;48.458;7.930;2022-11-20T11:15:44;11.10;99.90
14099;DHT22;7126;48.458;7.930;2022-11-20T11:18:10;11.10;99.90
14099;DHT22;7126;48.458;7.930;2022-11-20T11:20:38;11.20;99.90
14099;DHT22;7126;48.458;7.930;2022-11-20T11:23:10;11.30;99.90
14099;DHT22;7126;48.458;7.930;2022-11-20T11:25:57;11.30;99.90
14099;DHT22;7126;48.458;7.930;2022-11-20T11:28:24;11.30;99.90
14099;DHT22;7126;48.458;7.930;2022-11-20T11:30:52;11.30;99.90
14099;DHT22;7126;48.458;7.930;2022-11-20T11:33:21;11.40;99.90
14099;DHT22;7126;48.458;7.930;2022-11-20T11:35:49;11.30;99.90
14099;DHT22;7126;48.458;7.930;2022-11-20T11:38:22;11.30;99.90
14099;DHT22;7126;48.458;7.930;2022-11-20T11:40:48;11.20;99.90
14099;DHT22;7126;48.458;7.930;2022-11-20T11:43:20;11.10;99.90
14099;DHT22;7126;48.458;7.930;2022-11-20T11:49:10;11.00;99.90
14099;DHT22;7126;48.458;7.930;2022-11-20T11:52:04;11.00;99.90
14099;DHT22;7126;48.458;7.930;2022-11-20T12:10:44;11.20;99.90
14099;DHT22;7126;48.458;7.930;2022-11-20T12:13:47;11.30;99.90
14099;DHT22;7126;48.458;7.930;2022-11-20T12:16:16;11.50;99.90
14099;DHT22;7126;48.458;7.930;2022-11-20T12:18:43;11.40;99.90
14099;DHT22;7126;48.458;7.930;2022-11-20T12:34:56;12.10;99.90
14099;DHT22;7126;48.458;7.930;2022-11-20T12:40:44;11.80;99.90
14099;DHT22;7126;48.458;7.930;2022-11-20T12:43:25;11.50;99.90
14099;DHT22;7126;48.458;7.930;2022-11-20T12:46:22;12.10;99.90
14099;DHT22;7126;48.458;7.930;2022-11-20T12:57:24;11.60;99.90
14099;DHT22;7126;48.458;7.930;2022-11-20T13:05:36;11.00;99.90
14099;DHT22;7126;48.458;7.930;2022-11-20T13:08:03;10.90;99.90
14099;DHT22;7126;48.458;7.930;2022-11-20T13:10:46;10.90;99.90
14099;DHT22;7126;48.458;7.930;2022-11-20T13:13:29;10.90;99.90
14099;DHT22;7126;48.458;7.930;2022-11-20T13:16:13;11.30;99.90
14099;DHT22;7126;48.458;7.930;2022-11-20T13:18:41;11.60;99.90
14099;DHT22;7126;48.458;7.930;2022-11-20T13:21:16;11.60;99.90
14099;DHT22;7126;48.458;7.930;2022-11-20T13:23:42;11.60;99.90
14099;DHT22;7126;48.458;7.930;2022-11-20T13:26:22;11.80;99.90
14099;DHT22;7126;48.458;7.930;2022-11-20T13:29:02;12.30;99.90
14099;DHT22;7126;48.458;7.930;2022-11-20T13:33:55;14.40;99.90
14099;DHT22;7126;48.458;7.930;2022-11-20T13:36:25;16.00;99.90
14099;DHT22;7126;48.458;7.930;2022-11-20T13:38:54;18.10;99.90
14099;DHT22;7126;48.458;7.930;2022-11-20T13:41:28;21.70;96.30
14099;DHT22;7126;48.458;7.930;2022-11-20T13:46:44;27.60;80.60
14099;DHT22;7126;48.458;7.930;2022-11-20T13:51:47;29.20;61.70
14099;DHT22;7126;48.458;7.930;2022-11-20T13:54:28;29.40;64.50
14099;DHT22;7126;48.458;7.930;2022-11-20T14:02:22;24.40;64.10
14099;DHT22;7126;48.458;7.930;2022-11-20T14:04:51;20.90;74.60
14099;DHT22;7126;48.458;7.930;2022-11-20T14:07:19;18.30;85.40
14099;DHT22;7126;48.458;7.930;2022-11-20T14:09:54;16.70;93.70
14099;DHT22;7126;48.458;7.930;2022-11-20T14:12:31;15.60;98.70
14099;DHT22;7126;48.458;7.930;2022-11-20T14:14:57;14.80;99.90
14099;DHT22;7126;48.458;7.930;2022-11-20T14:20:05;13.90;99.90
14099;DHT22;7126;48.458;7.930;2022-11-20T14:22:31;14.00;99.90
14099;DHT22;7126;48.458;7.930;2022-11-20T14:27:39;13.20;99.90
14099;DHT22;7126;48.458;7.930;2022-11-20T14:30:13;12.80;99.90
14099;DHT22;7126;48.458;7.930;2022-11-20T14:32:39;12.40;99.90
14099;DHT22;7126;48.458;7.930;2022-11-20T14:35:14;12.00;99.90
14099;DHT22;7126;48.458;7.930;2022-11-20T14:37:44;11.70;99.90
14099;DHT22;7126;48.458;7.930;2022-11-20T14:40:33;11.50;99.90
14099;DHT22;7126;48.458;7.930;2022-11-20T14:43:20;11.40;99.90
14099;DHT22;7126;48.458;7.930;2022-11-20T14:46:07;11.30;99.90
14099;DHT22;7126;48.458;7.930;2022-11-20T14:48:48;11.20;99.90
14099;DHT22;7126;48.458;7.930;2022-11-20T14:51:32;11.00;99.90
14099;DHT22;7126;48.458;7.930;2022-11-20T14:54:18;11.00;99.90
14099;DHT22;7126;48.458;7.930;2022-11-20T14:57:03;10.90;99.90
14099;DHT22;7126;48.458;7.930;2022-11-20T14:59:31;10.80;99.90
14099;DHT22;7126;48.458;7.930;2022-11-20T15:01:59;10.70;99.90
14099;DHT22;7126;48.458;7.930;2022-11-20T15:04:26;10.60;99.90
14099;DHT22;7126;48.458;7.930;2022-11-20T15:06:57;10.60;99.90
14099;DHT22;7126;48.458;7.930;2022-11-20T15:09:24;10.50;99.90
14099;DHT22;7126;48.458;7.930;2022-11-20T15:12:01;10.50;99.90
14099;DHT22;7126;48.458;7.930;2022-11-20T15:14:28;10.40;99.90
14099;DHT22;7126;48.458;7.930;2022-11-20T15:16:55;10.40;99.90
14099;DHT22;7126;48.458;7.930;2022-11-20T15:19:23;10.30;99.90
14099;DHT22;7126;48.458;7.930;2022-11-20T15:21:49;10.20;99.90
14099;DHT22;7126;48.458;7.930;2022-11-20T15:24:15;10.20;99.90
14099;DHT22;7126;48.458;7.930;2022-11-20T15:26:41;10.20;99.90
14099;DHT22;7126;48.458;7.930;2022-11-20T15:29:12;10.10;99.90
14099;DHT22;7126;48.458;7.930;2022-11-20T15:31:38;10.00;99.90
14099;DHT22;7126;48.458;7.930;2022-11-20T15:34:12;10.00;99.90
14099;DHT22;7126;48.458;7.930;2022-11-20T15:36:39;10.00;99.90
14099;DHT22;7126;48.458;7.930;2022-11-20T15:39:05;9.90;99.90
14099;DHT22;7126;48.458;7.930;2022-11-20T15:41:33;9.90;99.90
14099;DHT22;7126;48.458;7.930;2022-11-20T15:43:59;9.90;99.90
14099;DHT22;7126;48.458;7.930;2022-11-20T15:46:30;9.80;99.90
14099;DHT22;7126;48.458;7.930;2022-11-20T15:48:59;9.80;99.90
14099;DHT22;7126;48.458;7.930;2022-11-20T15:51:31;9.90;99.90
14099;DHT22;7126;48.458;7.930;2022-11-20T15:53:58;9.80;99.90
14099;DHT22;7126;48.458;7.930;2022-11-20T15:56:24;9.80;99.90
14099;DHT22;7126;48.458;7.930;2022-11-20T15:58:49;9.90;99.90
14099;DHT22;7126;48.458;7.930;2022-11-20T16:01:17;9.90;99.90
14099;DHT22;7126;48.458;7.930;2022-11-20T16:03:44;9.90;99.90
14099;DHT22;7126;48.458;7.930;2022-11-20T16:06:10;10.00;99.90
14099;DHT22;7126;48.458;7.930;2022-11-20T16:08:35;10.00;99.90
14099;DHT22;7126;48.458;7.930;2022-11-20T16:11:01;10.00;99.90
14099;DHT22;7126;48.458;7.930;2022-11-20T16:13:27;10.00;99.90
14099;DHT22;7126;48.458;7.930;2022-11-20T16:16:20;9.90;99.90
14099;DHT22;7126;48.458;7.930;2022-11-20T16:18:46;9.90;99.90
14099;DHT22;7126;48.458;7.930;2022-11-20T16:21:12;9.90;99.90
14099;DHT22;7126;48.458;7.930;2022-11-20T16:23:41;9.90;99.90
14099;DHT22;7126;48.458;7.930;2022-11-20T16:26:12;9.80;99.90
14099;DHT22;7126;48.458;7.930;2022-11-20T16:28:38;9.80;99.90
14099;DHT22;7126;48.458;7.930;2022-11-20T16:31:15;9.80;99.90
14099;DHT22;7126;48.458;7.930;2022-11-20T16:33:41;9.80;99.90
14099;DHT22;7126;48.458;7.930;2022-11-20T16:36:11;9.80;99.90
14099;DHT22;7126;48.458;7.930;2022-11-20T16:38:38;9.80;99.90
14099;DHT22;7126;48.458;7.930;2022-11-20T16:41:03;9.80;99.90
14099;DHT22;7126;48.458;7.930;2022-11-20T16:43:29;9.80;99.90
14099;DHT22;7126;48.458;7.930;2022-11-20T16:45:55;9.80;99.90
14099;DHT22;7126;48.458;7.930;2022-11-20T16:48:20;9.80;99.90
14099;DHT22;7126;48.458;7.930;2022-11-20T16:50:51;9.80;99.90
14099;DHT22;7126;48.458;7.930;2022-11-20T16:53:19;9.80;99.90
14099;DHT22;7126;48.458;7.930;2022-11-20T16:55:45;9.80;99.90
14099;DHT22;7126;48.458;7.930;2022-11-20T16:58:10;9.80;99.90
14099;DHT22;7126;48.458;7.930;2022-11-20T17:00:37;9.80;99.90
14099;DHT22;7126;48.458;7.930;2022-11-20T17:03:04;9.80;99.90
14099;DHT22;7126;48.458;7.930;2022-11-20T17:05:30;9.80;99.90
14099;DHT22;7126;48.458;7.930;2022-11-20T17:07:56;9.70;99.90
14099;DHT22;7126;48.458;7.930;2022-11-20T17:10:22;9.70;99.90
14099;DHT22;7126;48.458;7.930;2022-11-20T17:12:47;9.80;99.90
14099;DHT22;7126;48.458;7.930;2022-11-20T17:15:13;9.80;99.90
14099;DHT22;7126;48.458;7.930;2022-11-20T17:17:38;9.90;99.90
14099;DHT22;7126;48.458;7.930;2022-11-20T17:20:04;9.80;99.90
14099;DHT22;7126;48.458;7.930;2022-11-20T17:22:31;9.90;99.90
14099;DHT22;7126;48.458;7.930;2022-11-20T17:24:56;9.90;99.90
14099;DHT22;7126;48.458;7.930;2022-11-20T17:27:22;9.80;99.90
14099;DHT22;7126;48.458;7.930;2022-11-20T17:29:48;9.80;99.90
14099;DHT22;7126;48.458;7.930;2022-11-20T17:32:13;9.70;99.90
14099;DHT22;7126;48.458;7.930;2022-11-20T17:34:39;9.70;99.90
14099;DHT22;7126;48.458;7.930;2022-11-20T17:37:05;9.70;99.90
14099;DHT22;7126;48.458;7.930;2022-11-20T17:39:31;9.70;99.90
14099;DHT22;7126;48.458;7.930;2022-11-20T17:41:57;9.60;99.90
14099;DHT22;7126;48.458;7.930;2022-11-20T17:44:41;9.70;99.90
14099;DHT22;7126;48.458;7.930;2022-11-20T17:47:07;9.60;99.90
14099;DHT22;7126;48.458;7.930;2022-11-20T17:49:32;9.60;99.90
14099;DHT22;7126;48.458;7.930;2022-11-20T17:51:58;9.50;99.90
14099;DHT22;7126;48.458;7.930;2022-11-20T17:54:24;9.30;99.90